Mcbride, Canada
Current Conditions -  °F | °C
As of 9:00 PM on Friday 24 Oct 2014 (Local Time) from CYQZ Reporting Station
Few Clouds Few Clouds  
Wind Chill: 34°   Ceiling: Unl
Heat Index: 34°   Visibility: 9mi
Dew Point: 34°   Wind: 2mph
Humidity: 100%   Direction: NA
Pressure: 29.97"   Gusts: NA
Location:  53.3°N, 120.17°W
Report Text: CYQZ 250400Z AUTO VRB02KT 9SM FEW065 01/01 A2997 RMK SLP175
Loading
Personal Weather Stations






























Interactive Weather Map
Tropical Storm Tracking
New forecast layout! Learn more

10-Day Weather Forecast

Advertisements
Track Severe Weather on mobile